Aérodrome :
LOGIN :

S'inscrire | Disclaimer

   EN    FR    IT 

 










Légende :    VFR   VFR Marginal   IFR   IFR Intensif   IFR Très Intensif
Visi : 
Plafond : 
>= 8 km
>= 3000ft
5 à 8 km
1000 à 3000 ft
1500m à 5 km
500 à 1000 ft
800 à 1500m
200 à 500 ft
< 800m
< 200 ft
Symboles :   Orages  Brouillard  Fortes neiges  Fortes précipitations  Vent > 20 kt
SIGMETs :   Divers  Orages  Givrage  Turbulence  Onde Orograph.  Cendres Volcan.







- Altitude de l'aérodrome : 2096 ft
- Code IATA : AUR
- Voir les cartes d'approche


LFLW - Aurillac

DERNIER METAR :
  • 141300Z AUTO 23013KT 200V260 9999 FEW017/// SCT028/// BKN050/// ///TCU 09/05 Q1009 TEMPO 25015G30KT 3000 SHRA OVC004

METARs EXPIRÉS :
  • 141230Z AUTO 25012KT 9999 BKN021 BKN026 BKN047 07/05 Q1010 TEMPO 25015G30KT 3000 SHRA OVC004
  • 141200Z AUTO 24015KT 9999 BKN017 BKN023 OVC066 08/05 Q1010 TEMPO 25015G30KT 3000 SHRA OVC004
  • 141130Z AUTO 24013KT 9999 BKN016/// BKN023/// OVC034/// ///TCU 08/06 Q1010 TEMPO 25015G30KT 3000 SHRA OVC004
  • 141100Z AUTO 24011KT 9999 BKN016/// BKN022/// OVC030/// ///TCU 07/05 Q1011 TEMPO 25015G30KT 3000 SHRA OVC004
  • 141030Z AUTO 25013KT 9999 OVC017 08/05 Q1011 TEMPO 25015G30KT 3000 SHRA OVC004

TAF TAF LFLW
Valide du 14 à 12h jusqu'au 14 à 21h UTC


141100Z 1412/1421 24013KT 9999 BKN015 OVC025
PROB40
TEMPO 1412/1421 25015G30KT 3000 SHRA OVC004
BECMG 1415/1418 25020G30KT 4000 RA OVC005TCU
Pas de NOTAMs connus pour ce terrain.



MET'MAP, la Météo Aéronautique d'un coup d'oeil ! - Copyright ORBIFLY Décembre 2007 - Disclaimer

ORBIFLY MET'MAP TEAM :

Programmation & Développement : Alexandra Zaïnal
Conception & Développement : Baudouin d'Aumeries
Co-Programmation & Développement : Marc-Olivier Méhu
Soutien technique & logistique : Manuel Goepfert

Contact : metmap@orbifly.com




SOURCES & CREDITS :

   NOAA